Time;durP1;ratioP1;P1;durP2;ratioP2;P2;SDS_P1;SDS_P2;PMS_P1;PMS_P2;Temp;Humidity;BMP_temperature;BMP_pressure;BME280_temperature;BME280_humidity;BME280_pressure;Samples;Min_cycle;Max_cycle;Signal;HPM_P1;HPM_P2
2023/10/24 00:01:27;;;;;;;35.47;16.80;;;;;;;13.21;61.39;100637.54;125424;1099;101877;-79
2023/10/24 00:03:59;;;;;;;36.57;17.33;;;;;;;13.14;61.90;100633.86;125401;1099;101837;-79
2023/10/24 00:06:30;;;;;;;34.23;16.20;;;;;;;13.08;61.87;100631.05;125440;1099;104261;-79
2023/10/24 00:09:04;;;;;;;39.77;17.47;;;;;;;13.05;61.75;100629.22;125430;1099;104483;-78
2023/10/24 00:11:35;;;;;;;37.00;18.03;;;;;;;13.02;61.94;100629.12;125488;1099;104268;-78
2023/10/24 00:14:07;;;;;;;34.63;16.97;;;;;;;12.97;62.23;100625.48;125464;1099;104259;-78
2023/10/24 00:16:38;;;;;;;36.50;18.13;;;;;;;12.94;62.54;100628.91;125456;1099;104236;-78
2023/10/24 00:19:09;;;;;;;35.90;17.53;;;;;;;13.01;62.48;100626.45;125454;1099;102031;-79
2023/10/24 00:21:40;;;;;;;38.20;17.53;;;;;;;13.05;62.24;100623.95;124825;1099;102009;-77
2023/10/24 00:24:12;;;;;;;35.13;16.70;;;;;;;13.08;62.64;100625.78;125423;1098;101864;-77
2023/10/24 00:26:44;;;;;;;38.03;17.67;;;;;;;13.04;62.30;100624.81;125387;1099;104238;-77
2023/10/24 00:29:15;;;;;;;38.30;16.57;;;;;;;13.02;62.57;100629.12;125362;1099;101888;-78
2023/10/24 00:31:46;;;;;;;36.00;17.70;;;;;;;12.97;62.43;100620.22;125468;1099;104165;-77
2023/10/24 00:34:17;;;;;;;38.13;17.60;;;;;;;12.91;62.46;100618.30;125443;1099;104220;-78
2023/10/24 00:36:49;;;;;;;34.40;16.43;;;;;;;12.83;63.11;100614.56;125456;1099;104237;-77
2023/10/24 00:39:20;;;;;;;35.57;17.03;;;;;;;12.76;63.16;100609.95;125504;1099;101835;-80
2023/10/24 00:41:51;;;;;;;34.03;16.33;;;;;;;12.68;62.99;100606.22;125367;1099;102019;-80
2023/10/24 00:44:22;;;;;;;38.53;17.57;;;;;;;12.64;63.34;100617.53;125338;1099;102083;-78
2023/10/24 00:46:54;;;;;;;36.45;17.80;;;;;;;12.57;63.26;100619.06;125431;1099;104242;-79
2023/10/24 00:49:26;;;;;;;36.57;17.83;;;;;;;12.47;63.88;100627.56;125425;1099;102393;-79
2023/10/24 00:51:59;;;;;;;35.73;17.37;;;;;;;12.35;63.59;100626.31;125438;1098;102009;-79
2023/10/24 00:54:33;;;;;;;37.57;18.40;;;;;;;12.27;64.05;100616.42;125406;1099;101824;-80
2023/10/24 00:57:04;;;;;;;;;;;;;;;12.20;63.51;100624.13;125531;1099;101931;-79
2023/10/24 00:59:36;;;;;;;36.50;18.23;;;;;;;12.13;63.66;100622.14;125485;1099;104191;-79
2023/10/24 01:02:09;;;;;;;37.77;17.33;;;;;;;12.09;64.21;100619.36;125507;1099;102045;-78
2023/10/24 01:04:41;;;;;;;36.85;17.35;;;;;;;12.11;64.43;100622.95;125532;1099;101836;-78
2023/10/24 01:07:12;;;;;;;37.40;17.73;;;;;;;12.11;64.43;100628.22;125404;1099;102086;-77
2023/10/24 01:09:43;;;;;;;38.80;18.43;;;;;;;12.10;64.41;100626.42;125430;1098;104246;-78
2023/10/24 01:12:15;;;;;;;38.75;17.10;;;;;;;12.09;64.61;100619.36;125310;1099;104165;-79
2023/10/24 01:14:46;;;;;;;36.55;17.05;;;;;;;12.06;64.58;100628.08;125539;1099;104220;-78
2023/10/24 01:17:18;;;;;;;36.10;17.53;;;;;;;12.00;64.96;100623.50;125367;1099;101865;-78
2023/10/24 01:19:49;;;;;;;39.17;19.27;;;;;;;11.95;64.84;100626.81;125342;1099;104169;-79
2023/10/24 01:22:21;;;;;;;35.75;17.45;;;;;;;11.92;65.31;100618.79;125434;1099;104182;-78
2023/10/24 01:24:53;;;;;;;37.73;17.43;;;;;;;11.84;65.13;100616.83;126355;1098;101828;-78
2023/10/24 01:27:26;;;;;;;38.23;17.33;;;;;;;11.81;65.44;100613.19;125428;1099;104236;-78
2023/10/24 01:29:57;;;;;;;38.77;18.37;;;;;;;11.74;65.52;100621.73;125300;1099;104273;-77
2023/10/24 01:32:33;;;;;;;39.83;17.80;;;;;;;11.72;65.61;100623.40;125417;1099;102013;-78
2023/10/24 01:35:04;;;;;;;37.87;16.67;;;;;;;11.77;65.49;100627.09;125429;1099;102293;-77
2023/10/24 01:37:36;;;;;;;33.70;16.63;;;;;;;11.80;65.45;100627.20;124744;1099;104159;-77
2023/10/24 01:40:09;;;;;;;32.77;17.40;;;;;;;11.83;65.75;100622.92;125392;1099;102028;-78
2023/10/24 01:42:40;;;;;;;35.35;17.90;;;;;;;11.84;65.66;100629.98;125427;1099;101833;-77
2023/10/24 01:45:14;;;;;;;34.03;16.33;;;;;;;11.85;65.75;100626.48;125251;1099;104198;-77
2023/10/24 01:47:44;;;;;;;;;;;;;;;11.85;65.46;100629.11;124951;1099;102111;-77
2023/10/24 01:50:15;;;;;;;34.30;15.70;;;;;;;11.87;65.61;100623.91;125435;1098;104156;-77
2023/10/24 01:52:49;;;;;;;36.10;16.13;;;;;;;11.86;65.81;100630.91;125329;1099;104124;-77
2023/10/24 01:55:20;;;;;;;35.60;15.90;;;;;;;11.84;65.87;100616.83;124821;1099;101963;-81
2023/10/24 01:57:52;;;;;;;34.80;14.93;;;;;;;11.86;66.04;100611.62;125008;1098;101967;-80
2023/10/24 02:00:23;;;;;;;35.67;16.03;;;;;;;11.88;65.99;100609.92;124777;1099;101915;-81
2023/10/24 02:02:54;;;;;;;35.63;16.03;;;;;;;11.85;66.03;100618.59;125391;1099;104289;-79
2023/10/24 02:05:26;;;;;;;35.83;16.50;;;;;;;11.80;66.19;100622.81;125419;1099;104191;-79
2023/10/24 02:07:57;;;;;;;33.80;15.77;;;;;;;11.75;66.28;100623.50;125400;1099;102183;-79
2023/10/24 02:10:28;;;;;;;33.20;15.37;;;;;;;11.70;66.19;100618.09;124966;1099;101846;-80
2023/10/24 02:12:59;;;;;;;37.50;16.47;;;;;;;11.66;66.52;100613.59;125524;1099;101974;-81
2023/10/24 02:15:31;;;;;;;33.70;15.67;;;;;;;11.69;66.33;100619.84;124963;1099;104178;-80
2023/10/24 02:18:03;;;;;;;32.53;15.40;;;;;;;11.69;66.34;100621.58;125503;1099;104172;-78
2023/10/24 02:20:34;;;;;;;33.73;15.70;;;;;;;11.69;66.42;100611.06;125388;1099;104138;-78
2023/10/24 02:23:06;;;;;;;32.00;16.03;;;;;;;11.63;66.70;100603.86;125462;1099;104248;-78
2023/10/24 02:25:39;;;;;;;36.60;15.10;;;;;;;11.65;66.69;100607.42;125398;1099;104312;-79
2023/10/24 02:28:10;;;;;;;32.58;15.58;;;;;;;11.69;66.58;100611.06;125400;1099;104178;-79
2023/10/24 02:30:41;;;;;;;34.65;15.70;;;;;;;11.67;66.76;100616.27;125552;1099;104178;-79
2023/10/24 02:33:13;;;;;;;35.73;15.90;;;;;;;11.67;66.78;100620.61;125432;1099;104192;-78
2023/10/24 02:35:44;;;;;;;34.70;15.97;;;;;;;11.59;66.50;100619.48;126368;1098;104329;-78
2023/10/24 02:38:16;;;;;;;32.87;15.20;;;;;;;11.48;66.94;100625.28;124886;1099;103459;-79
2023/10/24 02:40:55;;;;;;;31.43;15.50;;;;;;;11.35;66.98;100625.69;125379;1099;104169;-78
2023/10/24 02:43:27;;;;;;;34.43;16.03;;;;;;;11.30;67.15;100628.16;125441;1099;101922;-78
2023/10/24 02:46:05;;;;;;;36.47;16.07;;;;;;;11.30;67.46;100629.91;124783;1099;104318;-77
2023/10/24 02:48:36;;;;;;;38.00;16.13;;;;;;;11.30;67.41;100629.91;125452;1099;104236;-78
2023/10/24 02:51:07;;;;;;;32.87;15.03;;;;;;;11.30;67.42;100632.53;125331;1099;102057;-79
2023/10/24 02:53:38;;;;;;;33.27;15.77;;;;;;;11.27;67.22;100642.93;124738;1099;104446;-79
2023/10/24 02:56:10;;;;;;;35.80;16.17;;;;;;;11.26;67.59;100630.63;125497;1099;101906;-78
2023/10/24 02:58:43;;;;;;;34.47;16.17;;;;;;;11.24;67.83;100633.20;125380;1099;104214;-79
2023/10/24 03:01:17;;;;;;;32.00;15.70;;;;;;;11.24;67.69;100637.57;125457;1099;101779;-78
2023/10/24 03:03:49;;;;;;;33.03;15.23;;;;;;;11.24;67.75;100637.57;125407;1099;104249;-78
2023/10/24 03:06:21;;;;;;;34.93;16.63;;;;;;;11.20;67.78;100643.55;125236;1099;104086;-78
2023/10/24 03:08:52;;;;;;;37.97;16.47;;;;;;;11.14;67.77;100645.12;125341;1098;101984;-77
2023/10/24 03:11:24;;;;;;;36.23;16.17;;;;;;;11.08;67.95;100644.91;125314;1099;101903;-77
2023/10/24 03:13:56;;;;;;;39.70;16.73;;;;;;;10.97;68.08;100634.01;125448;1099;104232;-81
2023/10/24 03:16:28;;;;;;;35.33;15.77;;;;;;;10.87;68.16;100638.87;125478;1098;104281;-82
2023/10/24 03:18:59;;;;;;;35.13;16.43;;;;;;;10.83;68.27;100639.58;125381;1099;101888;-81
2023/10/24 03:21:31;;;;;;;29.50;14.17;;;;;;;10.86;68.67;100651.11;125577;1098;101962;-83
2023/10/24 03:24:02;;;;;;;29.03;15.27;;;;;;;10.84;68.24;100642.27;125501;1099;102064;-83
2023/10/24 03:26:34;;;;;;;37.97;16.60;;;;;;;10.73;68.95;100636.61;125505;1099;101988;-82
2023/10/24 03:29:05;;;;;;;32.23;15.17;;;;;;;10.65;68.82;100637.19;125444;1099;102121;-80
2023/10/24 03:31:38;;;;;;;31.47;15.33;;;;;;;10.56;68.57;100632.47;124840;1099;104360;-79
2023/10/24 03:34:09;;;;;;;31.23;14.93;;;;;;;10.58;69.09;100630.78;125497;1099;102084;-78
2023/10/24 03:36:41;;;;;;;36.97;15.67;;;;;;;10.68;68.74;100632.05;125488;1099;104207;-78
2023/10/24 03:39:13;;;;;;;30.20;15.20;;;;;;;10.76;69.10;100636.73;125515;1099;102284;-78
2023/10/24 03:41:44;;;;;;;33.80;15.83;;;;;;;10.77;68.99;100649.02;125498;1099;104169;-78
2023/10/24 03:44:15;;;;;;;39.23;17.47;;;;;;;10.74;69.12;100650.66;125837;1098;104335;-80
2023/10/24 03:46:47;;;;;;;32.83;16.47;;;;;;;10.70;69.00;100643.48;124838;1098;102019;-80
2023/10/24 03:49:18;;;;;;;33.77;15.47;;;;;;;10.67;69.24;100648.62;125420;1099;104114;-80
2023/10/24 03:51:49;;;;;;;35.33;15.90;;;;;;;10.64;69.14;100646.77;125488;1099;104278;-80
2023/10/24 03:54:21;;;;;;;35.93;15.77;;;;;;;10.58;69.42;100644.83;125414;1099;104645;-80
2023/10/24 03:56:52;;;;;;;43.77;15.77;;;;;;;10.60;69.20;100651.02;125415;1099;106988;-80
2023/10/24 03:59:23;;;;;;;32.23;15.63;;;;;;;10.58;69.75;100652.70;125408;1099;104172;-78
2023/10/24 04:01:56;;;;;;;34.27;15.20;;;;;;;10.55;69.60;100657.83;125437;1099;104245;-78
2023/10/24 04:04:29;;;;;;;33.33;16.10;;;;;;;10.52;69.54;100656.83;126049;1099;101913;-76
2023/10/24 04:07:04;;;;;;;33.95;14.73;;;;;;;10.52;69.13;100656.83;125470;1099;104166;-80
2023/10/24 04:09:35;;;;;;;34.33;15.53;;;;;;;10.47;69.60;100655.73;125454;1099;101865;-81
2023/10/24 04:12:07;;;;;;;35.63;16.03;;;;;;;10.42;69.61;100658.17;125524;1099;101794;-81
2023/10/24 04:14:39;;;;;;;36.20;16.83;;;;;;;10.38;69.88;100659.80;125557;1099;104214;-80
2023/10/24 04:17:10;;;;;;;39.93;17.80;;;;;;;10.34;69.50;100662.24;125523;1098;102058;-81
2023/10/24 04:19:41;;;;;;;32.73;15.83;;;;;;;10.29;69.43;100662.02;125529;1099;104338;-78
2023/10/24 04:22:13;;;;;;;34.33;15.20;;;;;;;10.24;69.38;100663.58;125450;1099;104112;-78
2023/10/24 04:24:45;;;;;;;32.60;15.33;;;;;;;10.21;69.76;100660.84;125500;1099;104296;-81
2023/10/24 04:27:19;;;;;;;32.33;15.47;;;;;;;10.15;70.28;100663.21;125540;1099;104175;-80
2023/10/24 04:29:51;;;;;;;31.63;14.07;;;;;;;10.11;70.25;100661.29;125439;1099;104239;-79
2023/10/24 04:32:22;;;;;;;32.63;14.63;;;;;;;10.13;70.28;100659.61;125455;1099;101925;-80
2023/10/24 04:34:54;;;;;;;35.80;14.60;;;;;;;10.16;70.32;100662.36;125377;1099;101941;-79
2023/10/24 04:37:26;;;;;;;34.23;14.90;;;;;;;10.15;70.67;100661.47;125456;1099;102629;-79
2023/10/24 04:39:57;;;;;;;31.00;14.07;;;;;;;10.14;70.65;100666.66;125539;1099;101964;-80
2023/10/24 04:42:28;;;;;;;34.03;14.63;;;;;;;10.12;70.85;100668.34;126419;1098;104274;-78
2023/10/24 04:45:00;;;;;;;31.90;13.70;;;;;;;10.15;70.51;100665.84;125486;1099;104297;-79
2023/10/24 04:47:31;;;;;;;29.33;13.60;;;;;;;10.19;71.07;100676.51;125540;1099;104204;-79
2023/10/24 04:50:03;;;;;;;30.27;13.10;;;;;;;10.20;71.06;100674.77;125589;1098;102226;-80
2023/10/24 04:52:34;;;;;;;29.33;12.57;;;;;;;10.19;70.41;100678.22;124890;1099;104232;-82
2023/10/24 04:55:06;;;;;;;38.70;14.87;;;;;;;10.20;71.03;100677.39;125431;1102;102393;-79
2023/10/24 04:57:38;;;;;;;29.07;13.67;;;;;;;10.22;70.92;100676.63;125370;1099;103345;-78
2023/10/24 05:00:12;;;;;;;34.50;14.13;;;;;;;10.24;71.06;100681.94;124746;1099;101945;-79
2023/10/24 05:02:42;;;;;;;;;;;;;;;10.21;71.85;100690.56;125361;1098;104175;-79
2023/10/24 05:05:14;;;;;;;29.07;14.00;;;;;;;10.19;70.85;100684.37;125448;1099;104203;-79
2023/10/24 05:08:06;;;;;;;31.77;13.53;;;;;;;10.26;71.47;100696.00;126323;1098;101839;-81
2023/10/24 05:10:38;;;;;;;30.80;14.25;;;;;;;10.29;71.03;100701.37;125513;1099;104173;-79
2023/10/24 05:13:09;;;;;;;31.63;14.43;;;;;;;10.28;71.31;100704.81;125097;1099;102215;-77
2023/10/24 05:15:40;;;;;;;32.30;15.47;;;;;;;10.30;71.34;100708.41;124744;1099;102074;-78
2023/10/24 05:18:18;;;;;;;34.90;14.17;;;;;;;10.30;71.63;100711.03;125395;1098;102089;-77
2023/10/24 05:20:50;;;;;;;30.97;13.47;;;;;;;10.32;71.63;100714.60;125692;1099;102137;-79
2023/10/24 05:23:21;;;;;;;31.73;13.50;;;;;;;10.37;71.21;100718.33;124796;1102;101895;-78
2023/10/24 05:25:53;;;;;;;32.90;13.70;;;;;;;10.45;71.70;100717.75;124681;1099;104344;-76
2023/10/24 05:28:34;;;;;;;30.00;14.10;;;;;;;10.51;71.60;100716.25;124790;1099;102315;-79
2023/10/24 05:31:10;;;;;;;29.13;13.60;;;;;;;10.56;71.43;100719.06;125531;1099;104294;-82
2023/10/24 05:33:41;;;;;;;33.00;14.83;;;;;;;10.65;71.87;100726.41;124829;1099;101967;-78
2023/10/24 05:36:19;;;;;;;32.98;14.28;;;;;;;10.63;71.69;100712.31;124912;1099;102449;-84
2023/10/24 05:38:54;;;;;;;34.97;14.33;;;;;;;10.75;71.68;100733.78;124854;1099;107423;-81
2023/10/24 05:41:26;;;;;;;38.43;15.13;;;;;;;10.81;71.57;100735.77;125078;1099;104211;-78
2023/10/24 05:43:58;;;;;;;35.33;15.77;;;;;;;10.86;71.97;100742.08;126568;1098;102029;-83
2023/10/24 05:46:33;;;;;;;32.77;15.53;;;;;;;10.91;71.98;100744.05;125007;1099;104108;-81
2023/10/24 05:49:10;;;;;;;35.90;16.07;;;;;;;10.97;71.87;100743.41;125554;1099;117840;-82
2023/10/24 05:51:44;;;;;;;34.33;15.17;;;;;;;11.04;71.55;100747.14;125044;1099;101831;-84
2023/10/24 05:54:40;;;;;;;;;;;;;;;;;;;;;
2023/10/24 05:58:08;;;;;;;30.60;14.50;;;;;;;11.13;71.85;100750.13;125846;1098;104284;-83
2023/10/24 06:00:50;;;;;;;33.00;14.40;;;;;;;11.15;71.85;100741.44;124839;1099;104182;-77
2023/10/24 06:03:27;;;;;;;35.13;15.00;;;;;;;11.19;71.85;100747.72;124765;1099;104373;-77
2023/10/24 06:05:59;;;;;;;32.13;13.87;;;;;;;11.15;71.97;100740.55;124665;1099;102007;-75
2023/10/24 06:08:30;;;;;;;31.87;14.90;;;;;;;11.14;71.67;100747.55;124792;1099;101874;-76
2023/10/24 06:11:04;;;;;;;35.30;14.93;;;;;;;11.17;71.92;100749.37;124924;1099;104265;-79
2023/10/24 06:13:35;;;;;;;34.73;14.75;;;;;;;11.18;71.77;100740.67;124912;1099;104255;-77
2023/10/24 06:16:12;;;;;;;31.03;13.57;;;;;;;11.18;72.08;100742.41;124917;1099;102449;-80
2023/10/24 06:18:44;;;;;;;34.67;13.50;;;;;;;11.21;71.85;100738.16;124815;1099;104178;-76
2023/10/24 06:21:22;;;;;;;31.17;13.27;;;;;;;11.25;71.91;100742.70;125693;1099;102116;-79
2023/10/24 06:23:57;;;;;;;29.15;12.53;;;;;;;11.35;72.09;100741.29;125925;1098;102297;-78
2023/10/24 06:26:33;;;;;;;30.10;13.37;;;;;;;11.48;72.33;100737.36;125506;1099;104089;-78
2023/10/24 06:29:05;;;;;;;;;;;;;;;11.59;72.39;100732.48;126061;1098;102677;-79
2023/10/24 06:31:37;;;;;;;32.70;13.07;;;;;;;11.69;72.21;100739.88;125462;1098;104278;-78
2023/10/24 06:34:11;;;;;;;27.50;12.33;;;;;;;11.81;71.69;100735.04;125626;1099;102118;-84
2023/10/24 06:36:49;;;;;;;28.93;13.13;;;;;;;11.92;72.01;100731.86;126678;1098;101841;-83
2023/10/24 06:39:23;;;;;;;29.20;13.03;;;;;;;12.05;72.37;100745.52;125406;1099;102109;-84
2023/10/24 06:42:04;;;;;;;29.43;14.03;;;;;;;12.15;72.03;100730.92;125333;1099;104334;-84
2023/10/24 06:44:42;;;;;;;26.97;12.53;;;;;;;12.25;72.18;100723.33;126805;1098;102135;-80
2023/10/24 06:48:06;;;;;;;30.30;13.10;;;;;;;12.41;71.98;100720.36;125930;1099;101974;-79
2023/10/24 06:50:47;;;;;;;29.67;13.70;;;;;;;12.57;72.36;100727.91;126033;1099;110909;-86
2023/10/24 06:53:26;;;;;;;28.07;12.90;;;;;;;12.72;72.04;100723.95;127762;1098;101055;-83
2023/10/24 06:56:03;;;;;;;29.03;12.33;;;;;;;12.85;71.91;100717.31;126875;1098;102000;-85
2023/10/24 06:58:42;;;;;;;29.97;12.70;;;;;;;12.92;71.86;100701.73;126676;1098;104198;-83
2023/10/24 07:01:42;;;;;;;30.80;12.50;;;;;;;13.02;71.77;100704.64;126258;1098;101868;-85
2023/10/24 07:04:30;;;;;;;31.37;13.00;;;;;;;13.17;71.95;100697.17;125579;1098;104184;-87
2023/10/24 07:07:13;;;;;;;26.27;13.33;;;;;;;13.32;71.85;100696.69;126671;1098;102058;-87
2023/10/24 07:10:20;;;;;;;27.55;13.18;;;;;;;13.46;71.70;100700.66;125802;1099;101958;-82
2023/10/24 07:13:20;;;;;;;26.17;12.17;;;;;;;13.57;71.41;100702.67;126768;1098;101935;-79
2023/10/24 07:16:28;;;;;;;29.90;13.20;;;;;;;13.69;71.02;100696.84;126006;1099;104271;-78
2023/10/24 07:19:09;;;;;;;31.80;14.10;;;;;;;13.78;71.41;100683.89;125436;1099;101845;-78
2023/10/24 07:21:41;;;;;;;29.47;13.50;;;;;;;13.95;71.29;100698.39;125879;1098;104242;-83
2023/10/24 07:24:16;;;;;;;28.93;12.90;;;;;;;14.09;71.58;100706.66;127140;1098;101943;-87
2023/10/24 07:27:09;;;;;;;35.20;14.43;;;;;;;14.23;71.15;100706.08;127436;1098;101488;-84
2023/10/24 07:30:18;;;;;;;36.43;14.60;;;;;;;14.41;70.89;100713.55;126762;1098;104175;-81
2023/10/24 07:33:30;;;;;;;30.73;13.93;;;;;;;14.54;70.84;100710.36;125476;1102;101927;-83
2023/10/24 07:36:10;;;;;;;33.83;15.23;;;;;;;14.64;70.74;100714.13;125827;1102;104178;-82
2023/10/24 07:39:12;;;;;;;33.17;14.10;;;;;;;14.72;70.82;100705.52;125672;1102;102157;-81
2023/10/24 07:42:09;;;;;;;34.60;15.50;;;;;;;14.85;70.71;100713.69;125668;1102;104760;-80
2023/10/24 07:45:03;;;;;;;34.47;15.07;;;;;;;14.99;70.49;100714.89;125875;1101;104236;-81
2023/10/24 07:47:45;;;;;;;31.70;14.43;;;;;;;15.09;69.92;100702.76;125309;1099;104750;-85
2023/10/24 07:54:44;;;;;;;27.57;13.00;;;;;;;15.42;70.00;100697.23;125332;1102;117830;-81
2023/10/24 07:57:37;;;;;;;22.67;11.60;;;;;;;15.60;70.30;100688.77;125809;1099;105713;-82
2023/10/24 08:00:23;;;;;;;23.57;10.53;;;;;;;15.77;69.42;100682.92;126393;1098;104185;-82
2023/10/24 08:03:21;;;;;;;20.73;10.53;;;;;;;15.93;69.71;100684.06;126597;1098;101884;-87
2023/10/24 08:06:06;;;;;;;25.15;10.68;;;;;;;16.05;69.09;100675.42;125472;1102;103274;-82
2023/10/24 08:08:57;;;;;;;26.17;10.10;;;;;;;16.21;68.95;100668.63;127539;1098;101974;-86
2023/10/24 08:15:38;;;;;;;24.77;11.10;;;;;;;16.63;68.40;100659.52;126348;1098;101709;-88
2023/10/24 08:18:09;;;;;;;26.20;11.83;;;;;;;16.78;68.77;100658.81;127491;1099;102011;-80
2023/10/24 08:26:40;;;;;;;28.07;12.60;;;;;;;17.19;67.32;100658.48;125991;1099;102182;-84
2023/10/24 08:29:41;;;;;;;26.33;11.70;;;;;;;17.24;67.68;100647.03;126194;1099;104182;-77
2023/10/24 08:32:29;;;;;;;28.43;12.60;;;;;;;17.35;67.11;100652.45;125815;1102;101940;-78
2023/10/24 08:35:16;;;;;;;30.33;12.80;;;;;;;17.42;66.89;100656.95;127141;1098;101210;-81
2023/10/24 08:38:07;;;;;;;26.93;12.60;;;;;;;17.50;66.54;100653.47;126043;1099;103374;-82
2023/10/24 08:41:10;;;;;;;31.37;12.37;;;;;;;17.57;66.30;100650.89;126738;1098;102027;-82
2023/10/24 08:43:58;;;;;;;25.87;11.63;;;;;;;17.70;66.23;100648.34;126432;1099;101893;-82
2023/10/24 08:49:45;;;;;;;25.23;11.43;;;;;;;17.95;66.12;100650.37;125844;1099;101685;-81
2023/10/24 08:52:53;;;;;;;24.20;11.77;;;;;;;18.14;65.54;100642.55;127404;1098;102120;-86
2023/10/24 08:56:13;;;;;;;;;;;;;;;;;;;;;
2023/10/24 08:59:09;;;;;;;23.00;10.32;;;;;;;18.32;65.01;100632.05;126600;1099;104673;-87
2023/10/24 09:01:50;;;;;;;26.13;11.40;;;;;;;18.35;64.43;100628.50;127786;1098;101261;-86
2023/10/24 09:04:35;;;;;;;22.27;9.77;;;;;;;18.35;64.59;100632.94;126033;1099;104092;-82
2023/10/24 09:07:20;;;;;;;28.63;9.50;;;;;;;18.44;63.85;100632.99;125892;1099;117883;-82
2023/10/24 09:10:21;;;;;;;24.80;10.30;;;;;;;18.56;63.72;100624.18;126041;1102;101821;-83
2023/10/24 09:13:15;;;;;;;22.97;9.57;;;;;;;18.71;64.05;100626.03;125970;1102;101796;-80
2023/10/24 09:16:11;;;;;;;17.70;7.23;;;;;;;18.89;63.35;100638.56;125549;1102;104233;-82
2023/10/24 09:18:48;;;;;;;14.47;6.57;;;;;;;19.00;63.30;100627.06;125163;1102;104244;-83
2023/10/24 09:21:21;;;;;;;15.57;5.47;;;;;;;19.15;62.74;100614.67;126816;1098;102047;-80
2023/10/24 09:23:53;;;;;;;15.00;6.40;;;;;;;19.28;62.71;100611.17;126182;1098;104172;-80
2023/10/24 09:26:25;;;;;;;14.90;5.60;;;;;;;19.43;61.80;100604.09;124407;1099;102054;-72
2023/10/24 09:29:02;;;;;;;14.90;5.80;;;;;;;19.55;60.10;100598.78;125911;1098;101957;-76
2023/10/24 09:31:38;;;;;;;11.10;5.13;;;;;;;19.66;60.90;100590.80;124781;1099;104366;-78
2023/10/24 09:34:10;;;;;;;14.80;5.63;;;;;;;19.81;60.70;100568.64;125805;1099;104185;-77
2023/10/24 09:36:44;;;;;;;12.83;5.40;;;;;;;19.93;60.34;100584.61;125041;1099;104409;-75
2023/10/24 09:39:16;;;;;;;13.63;5.20;;;;;;;20.06;60.18;100585.47;124760;1099;101916;-74
2023/10/24 09:41:48;;;;;;;16.07;5.73;;;;;;;20.19;60.00;100586.32;124799;1099;104230;-77
2023/10/24 09:44:24;;;;;;;14.00;5.90;;;;;;;20.27;58.93;100585.42;125057;1099;104210;-79
2023/10/24 09:46:58;;;;;;;15.50;5.90;;;;;;;20.38;58.50;100581.81;125263;1099;104361;-77
2023/10/24 09:49:35;;;;;;;14.03;5.50;;;;;;;20.40;58.83;100570.27;124904;1099;104194;-77
2023/10/24 09:52:07;;;;;;;15.60;5.40;;;;;;;20.37;58.47;100556.08;124870;1098;101972;-77
2023/10/24 09:54:41;;;;;;;15.40;5.50;;;;;;;20.36;57.69;100546.30;124719;1099;104175;-78
2023/10/24 09:57:22;;;;;;;11.63;5.40;;;;;;;20.32;57.83;100534.78;126147;1098;101785;-79
2023/10/24 10:00:03;;;;;;;12.87;5.37;;;;;;;20.33;56.69;100543.65;126805;1098;102261;-79
2023/10/24 10:02:59;;;;;;;12.30;4.77;;;;;;;20.27;57.58;100537.46;126220;1098;102484;-77
2023/10/24 10:05:35;;;;;;;8.20;3.70;;;;;;;20.22;57.00;100538.36;125069;1099;102368;-77
2023/10/24 10:08:09;;;;;;;10.07;3.53;;;;;;;20.18;56.39;100532.16;125259;1099;104233;-82
2023/10/24 10:10:42;;;;;;;8.20;3.30;;;;;;;20.21;55.83;100534.81;125289;1099;104204;-75
2023/10/24 10:13:38;;;;;;;8.33;3.40;;;;;;;20.24;55.02;100537.47;125243;1099;104245;-74
2023/10/24 10:16:30;;;;;;;10.70;3.70;;;;;;;20.30;54.41;100539.20;125491;1099;104345;-78
2023/10/24 10:19:23;;;;;;;10.03;3.43;;;;;;;20.38;55.06;100525.86;126618;1098;104165;-79
2023/10/24 10:22:14;;;;;;;10.82;3.85;;;;;;;20.38;54.77;100517.86;126359;1098;101674;-81
2023/10/24 10:25:45;;;;;;;9.53;3.50;;;;;;;20.36;54.25;100515.20;125439;1099;102033;-78
2023/10/24 10:29:11;;;;;;;10.53;3.60;;;;;;;20.35;53.94;100529.44;125903;1098;101950;-76
2023/10/24 10:32:05;;;;;;;8.13;3.37;;;;;;;20.41;53.98;100526.75;125095;1102;104387;-73
2023/10/24 10:34:42;;;;;;;7.40;3.60;;;;;;;20.43;53.03;100514.30;124827;1099;102349;-81
2023/10/24 10:40:28;;;;;;;11.43;4.00;;;;;;;20.65;52.98;100504.44;124985;1099;101942;-82
2023/10/24 10:43:06;;;;;;;10.13;4.33;;;;;;;20.80;52.93;100490.13;125731;1098;101996;-82
2023/10/24 10:45:48;;;;;;;11.37;4.03;;;;;;;20.76;52.17;100469.70;126551;1098;104338;-80
2023/10/24 10:48:33;;;;;;;13.37;4.30;;;;;;;20.89;52.88;100485.63;125623;1099;103222;-80
2023/10/24 10:51:15;;;;;;;11.30;4.20;;;;;;;20.96;51.70;100487.36;125751;1099;104165;-84
2023/10/24 10:53:57;;;;;;;11.63;4.20;;;;;;;20.91;51.47;100492.73;126539;1099;101963;-80
2023/10/24 10:56:40;;;;;;;9.87;4.13;;;;;;;20.94;51.46;100481.14;125211;1099;104429;-78
2023/10/24 10:59:35;;;;;;;10.40;4.33;;;;;;;20.96;51.02;100485.58;126728;1098;107051;-83
2023/10/24 11:02:18;;;;;;;10.33;4.47;;;;;;;21.05;50.75;100484.63;125129;1099;101870;-80
2023/10/24 11:04:59;;;;;;;11.30;4.50;;;;;;;21.12;51.60;100474.78;126272;1099;101807;-82
2023/10/24 11:08:02;;;;;;;10.87;4.50;;;;;;;21.14;51.06;100473.86;126102;1098;104191;-84
2023/10/24 11:10:57;;;;;;;12.37;4.63;;;;;;;21.14;50.79;100478.31;126306;1099;104265;-78
2023/10/24 11:13:44;;;;;;;14.03;4.67;;;;;;;21.01;50.15;100481.08;125752;1099;101655;-82
2023/10/24 11:16:18;;;;;;;14.37;5.00;;;;;;;20.95;51.02;100472.25;125810;1099;101857;-79
2023/10/24 11:18:53;;;;;;;12.67;4.67;;;;;;;20.93;49.53;100474.05;125991;1099;101733;-78
2023/10/24 11:21:29;;;;;;;10.57;4.90;;;;;;;20.90;50.21;100456.28;126956;1098;102305;-81
2023/10/24 11:24:37;;;;;;;;;;;;;;;;;;;;;
2023/10/24 11:28:04;;;;;;;;;;;;;;;;;;;;;
2023/10/24 11:30:55;;;;;;;8.57;4.23;;;;;;;20.86;49.38;100456.31;125896;1099;104185;-78
2023/10/24 11:33:44;;;;;;;11.03;4.37;;;;;;;20.85;49.09;100449.20;126480;1098;102311;-79
2023/10/24 11:36:20;;;;;;;13.47;4.93;;;;;;;20.79;49.25;100445.69;125682;1099;104338;-81
2023/10/24 11:39:07;;;;;;;12.60;4.70;;;;;;;20.75;48.74;100437.72;125378;1099;101947;-79
2023/10/24 11:41:41;;;;;;;11.97;4.37;;;;;;;20.71;48.78;100428.88;125195;1099;104105;-77
2023/10/24 11:44:19;;;;;;;9.57;4.33;;;;;;;20.68;48.79;100422.65;125111;1099;104181;-78
2023/10/24 11:46:55;;;;;;;11.77;4.67;;;;;;;20.69;48.73;100429.77;125845;1099;104277;-77
2023/10/24 11:49:48;;;;;;;14.77;4.97;;;;;;;20.70;48.81;100424.42;125451;1099;102000;-78
2023/10/24 11:52:24;;;;;;;18.17;4.60;;;;;;;20.70;49.09;100421.75;126347;1098;104191;-77
2023/10/24 11:54:55;;;;;;;;;;;;;;;20.71;48.71;100419.97;125494;1099;101830;-77
2023/10/24 11:57:28;;;;;;;11.10;3.90;;;;;;;20.71;49.05;100420.88;125013;1099;104274;-79
2023/10/24 12:00:13;;;;;;;10.33;3.40;;;;;;;20.69;48.23;100419.97;125856;1098;104252;-80
2023/10/24 12:02:50;;;;;;;12.47;3.60;;;;;;;20.67;48.58;100416.45;126482;1098;101823;-81
2023/10/24 12:06:03;;;;;;;10.73;3.40;;;;;;;20.63;47.94;100417.31;126581;1099;104214;-77
2023/10/24 12:09:01;;;;;;;6.50;3.03;;;;;;;20.63;48.04;100420.89;125491;1102;102219;-79
2023/10/24 12:11:43;;;;;;;9.43;3.00;;;;;;;20.61;48.34;100409.33;125462;1099;104111;-76
2023/10/24 12:14:22;;;;;;;10.10;3.67;;;;;;;20.60;47.47;100417.34;125118;1099;101956;-78